createdAt,value
2022-12-04T00:02:23.824Z,15.67
2022-12-04T00:04:50.801Z,15.73
2022-12-04T00:07:17.545Z,16.23
2022-12-04T00:09:44.006Z,15.93
2022-12-04T00:12:10.461Z,17.23
2022-12-04T00:14:54.498Z,16.30
2022-12-04T00:17:23.303Z,18.13
2022-12-04T00:19:49.821Z,17.20
2022-12-04T00:22:16.310Z,18.07
2022-12-04T00:24:42.720Z,18.67
2022-12-04T00:27:09.183Z,16.77
2022-12-04T00:29:35.562Z,16.53
2022-12-04T00:32:02.403Z,17.23
2022-12-04T00:34:29.229Z,16.47
2022-12-04T00:36:55.590Z,17.60
2022-12-04T00:39:22.032Z,16.67
2022-12-04T00:41:48.492Z,17.93
2022-12-04T00:44:15.041Z,16.17
2022-12-04T00:46:41.401Z,16.07
2022-12-04T00:49:08.023Z,16.27
2022-12-04T00:51:34.512Z,17.40
2022-12-04T00:54:00.935Z,18.20
2022-12-04T00:56:28.440Z,18.10
2022-12-04T00:58:56.073Z,18.27
2022-12-04T01:01:23.019Z,17.63
2022-12-04T01:03:49.664Z,17.07
2022-12-04T01:06:19.271Z,17.33
2022-12-04T01:08:45.769Z,17.13
2022-12-04T01:11:12.227Z,16.40
2022-12-04T01:13:38.634Z,16.03
2022-12-04T01:16:05.151Z,16.53
2022-12-04T01:18:31.761Z,16.10
2022-12-04T01:20:58.205Z,16.47
2022-12-04T01:23:24.599Z,15.87
2022-12-04T01:25:54.986Z,16.73
2022-12-04T01:28:22.131Z,16.33
2022-12-04T01:30:57.526Z,16.30
2022-12-04T01:33:23.960Z,15.20
2022-12-04T01:35:54.307Z,15.13
2022-12-04T01:38:21.070Z,14.38
2022-12-04T01:40:47.676Z,15.47
2022-12-04T01:43:14.578Z,15.00
2022-12-04T01:45:42.553Z,14.70
2022-12-04T01:48:11.647Z,15.97
2022-12-04T01:50:38.394Z,15.20
2022-12-04T01:53:04.846Z,14.43
2022-12-04T01:55:31.733Z,13.90
2022-12-04T01:57:58.889Z,14.47
2022-12-04T02:00:25.460Z,15.07
2022-12-04T02:02:52.181Z,14.33
2022-12-04T02:05:20.961Z,14.93
2022-12-04T02:07:49.170Z,14.10
2022-12-04T02:10:17.175Z,14.77
2022-12-04T02:13:06.852Z,15.03
2022-12-04T02:15:46.994Z,14.70
2022-12-04T02:18:28.723Z,14.07
2022-12-04T02:21:03.025Z,14.90
2022-12-04T02:23:38.641Z,13.77
2022-12-04T02:26:23.773Z,14.43
2022-12-04T02:28:53.974Z,13.90
2022-12-04T02:31:22.950Z,15.10
2022-12-04T02:34:10.939Z,15.03
2022-12-04T02:36:43.137Z,15.43
2022-12-04T02:39:09.501Z,14.03
2022-12-04T02:41:56.280Z,14.47
2022-12-04T02:44:27.932Z,13.80
2022-12-04T02:46:57.213Z,14.27
2022-12-04T02:49:33.113Z,14.07
2022-12-04T02:52:00.424Z,14.40
2022-12-04T02:54:38.655Z,14.87
2022-12-04T02:57:07.228Z,15.03
2022-12-04T02:59:41.595Z,14.67
2022-12-04T03:02:17.508Z,14.23
2022-12-04T03:04:46.844Z,14.83
2022-12-04T03:07:15.179Z,14.63
2022-12-04T03:09:41.652Z,14.30
2022-12-04T03:12:29.775Z,14.40
2022-12-04T03:15:00.437Z,15.13
2022-12-04T03:17:32.662Z,14.52
2022-12-04T03:20:02.087Z,14.50
2022-12-04T03:22:29.497Z,14.90
2022-12-04T03:24:56.811Z,14.57
2022-12-04T03:27:34.693Z,15.37
2022-12-04T03:30:09.089Z,15.07
2022-12-04T03:32:35.525Z,15.40
2022-12-04T03:35:05.344Z,16.17
2022-12-04T03:37:41.269Z,15.53
2022-12-04T03:40:21.965Z,15.80
2022-12-04T03:42:51.648Z,16.20
2022-12-04T03:45:26.776Z,14.07
2022-12-04T03:47:57.016Z,14.30
2022-12-04T03:50:32.418Z,14.20
2022-12-04T03:53:02.103Z,13.57
2022-12-04T03:55:39.260Z,14.47
2022-12-04T03:58:08.130Z,13.87
2022-12-04T04:00:37.685Z,13.57
2022-12-04T04:03:07.937Z,14.00
2022-12-04T04:05:35.125Z,13.82
2022-12-04T04:08:21.622Z,14.60
2022-12-04T04:10:49.387Z,15.40
2022-12-04T04:13:38.317Z,14.67
2022-12-04T04:16:25.108Z,14.27
2022-12-04T04:19:10.896Z,14.13
2022-12-04T04:22:13.774Z,15.00
2022-12-04T04:24:48.153Z,14.13
2022-12-04T04:27:14.724Z,14.33
2022-12-04T04:29:42.327Z,14.57
2022-12-04T04:32:13.519Z,13.37
2022-12-04T04:34:46.372Z,14.43
2022-12-04T04:37:31.364Z,14.10
2022-12-04T04:40:13.793Z,13.93
2022-12-04T04:42:40.193Z,15.20
2022-12-04T04:45:11.053Z,15.10
2022-12-04T04:47:40.298Z,15.07
2022-12-04T04:50:08.311Z,13.03
2022-12-04T04:52:35.687Z,15.80
2022-12-04T04:55:03.379Z,14.10
2022-12-04T04:57:31.495Z,15.23
2022-12-04T04:59:58.291Z,14.30
2022-12-04T05:02:25.891Z,14.80
2022-12-04T05:04:52.536Z,14.97
2022-12-04T05:07:18.936Z,13.93
2022-12-04T05:09:45.385Z,13.40
2022-12-04T05:12:11.770Z,13.80
2022-12-04T05:14:38.157Z,14.07
2022-12-04T05:17:10.755Z,13.50
2022-12-04T05:19:54.842Z,13.47
2022-12-04T05:22:32.112Z,13.30
2022-12-04T05:24:58.914Z,13.97
2022-12-04T05:27:25.774Z,13.40
2022-12-04T05:29:56.536Z,13.63
2022-12-04T05:32:23.954Z,13.98
2022-12-04T05:34:50.888Z,14.23
2022-12-04T05:37:17.393Z,13.80
2022-12-04T05:39:43.824Z,14.10
2022-12-04T05:42:10.473Z,14.60
2022-12-04T05:44:36.937Z,13.60
2022-12-04T05:47:03.743Z,14.60
2022-12-04T05:49:30.815Z,14.57
2022-12-04T05:51:57.371Z,14.20
2022-12-04T05:54:24.731Z,13.87
2022-12-04T05:56:51.272Z,14.67
2022-12-04T05:59:18.306Z,13.87
2022-12-04T06:01:45.711Z,14.27
2022-12-04T06:04:12.469Z,14.10
2022-12-04T06:06:39.085Z,12.50
2022-12-04T06:09:06.393Z,14.20
2022-12-04T06:11:33.966Z,13.80
2022-12-04T06:14:01.285Z,13.20
2022-12-04T06:16:30.013Z,13.40
2022-12-04T06:19:01.135Z,13.87
2022-12-04T06:21:29.282Z,13.23
2022-12-04T06:23:55.983Z,14.13
2022-12-04T06:26:23.110Z,15.47
2022-12-04T06:28:50.404Z,15.87
2022-12-04T06:31:19.091Z,15.13
2022-12-04T06:33:45.682Z,13.73
2022-12-04T06:36:13.424Z,14.20
2022-12-04T06:38:39.906Z,14.27
2022-12-04T06:41:07.597Z,13.57
2022-12-04T06:43:35.304Z,14.27
2022-12-04T06:46:05.075Z,14.00
2022-12-04T06:48:32.155Z,14.23
2022-12-04T06:50:59.724Z,12.90
2022-12-04T06:53:27.705Z,15.70
2022-12-04T06:55:54.939Z,15.63
2022-12-04T06:58:21.556Z,14.90
2022-12-04T07:00:48.073Z,15.07
2022-12-04T07:03:14.529Z,14.73
2022-12-04T07:05:40.933Z,14.33
2022-12-04T07:08:07.479Z,14.80
2022-12-04T07:10:35.625Z,14.43
2022-12-04T07:13:02.499Z,14.57
2022-12-04T07:15:29.306Z,15.37
2022-12-04T07:17:55.840Z,14.23
2022-12-04T07:20:22.250Z,13.93
2022-12-04T07:22:48.726Z,14.40
2022-12-04T07:25:15.313Z,13.53
2022-12-04T07:27:41.905Z,14.20
2022-12-04T07:30:14.073Z,15.00
2022-12-04T07:32:42.046Z,15.17
2022-12-04T07:35:08.587Z,15.33
2022-12-04T07:37:35.769Z,13.80
2022-12-04T07:40:02.387Z,14.53
2022-12-04T07:42:29.167Z,15.03
2022-12-04T07:44:55.568Z,16.30
2022-12-04T07:47:21.954Z,15.40
2022-12-04T07:49:48.444Z,14.37
2022-12-04T07:52:14.888Z,14.30
2022-12-04T07:54:41.405Z,14.33
2022-12-04T07:57:07.820Z,14.83
2022-12-04T07:59:34.193Z,14.93
2022-12-04T08:02:01.267Z,16.07
2022-12-04T08:04:27.982Z,16.77
2022-12-04T08:06:54.440Z,16.07
2022-12-04T08:09:20.811Z,16.37
2022-12-04T08:11:47.281Z,15.40
2022-12-04T08:14:13.754Z,15.50
2022-12-04T08:16:40.424Z,16.47
2022-12-04T08:19:06.951Z,14.90
2022-12-04T08:21:33.701Z,15.77
2022-12-04T08:24:00.516Z,16.67
2022-12-04T08:26:28.271Z,15.93
2022-12-04T08:28:55.467Z,16.50
2022-12-04T08:31:23.785Z,15.77
2022-12-04T08:33:51.532Z,16.10
2022-12-04T08:36:19.344Z,17.17
2022-12-04T08:38:46.568Z,17.20
2022-12-04T08:41:14.340Z,17.57
2022-12-04T08:43:41.359Z,16.90
2022-12-04T08:46:11.263Z,17.37
2022-12-04T08:48:37.833Z,18.43
2022-12-04T08:51:04.679Z,17.47
2022-12-04T08:53:32.060Z,17.27
2022-12-04T08:56:00.669Z,18.27
2022-12-04T08:58:27.089Z,16.33
2022-12-04T09:00:53.652Z,16.47
2022-12-04T09:03:22.635Z,17.00
2022-12-04T09:05:52.571Z,17.27
2022-12-04T09:08:19.086Z,16.57
2022-12-04T09:10:45.584Z,15.27
2022-12-04T09:13:12.207Z,16.93
2022-12-04T09:15:39.426Z,16.40
2022-12-04T09:18:07.227Z,15.97
2022-12-04T09:20:33.907Z,17.73
2022-12-04T09:23:04.954Z,17.23
2022-12-04T09:25:32.340Z,16.53
2022-12-04T09:27:58.881Z,17.57
2022-12-04T09:30:25.620Z,16.97
2022-12-04T09:32:52.088Z,16.60
2022-12-04T09:35:18.747Z,15.47
2022-12-04T09:37:45.190Z,16.13
2022-12-04T09:40:29.533Z,14.93
2022-12-04T09:43:06.401Z,14.03
2022-12-04T09:45:37.913Z,15.03
2022-12-04T09:48:04.584Z,13.77
2022-12-04T09:50:34.003Z,13.23
2022-12-04T09:53:09.273Z,13.23
2022-12-04T09:55:38.899Z,12.50
2022-12-04T09:58:06.580Z,12.83
2022-12-04T10:00:36.518Z,13.17
2022-12-04T10:03:07.716Z,13.00
2022-12-04T10:08:18.575Z,13.27
2022-12-04T10:11:05.569Z,13.27
2022-12-04T10:13:35.316Z,12.60
2022-12-04T10:16:12.193Z,13.13
2022-12-04T10:18:47.573Z,13.60
2022-12-04T10:21:30.356Z,13.47
2022-12-04T10:24:08.256Z,12.97
2022-12-04T10:26:41.352Z,13.67
2022-12-04T10:29:09.012Z,14.20
2022-12-04T10:31:37.631Z,13.40
2022-12-04T10:34:12.513Z,13.50
2022-12-04T10:36:39.842Z,13.53
2022-12-04T10:39:10.269Z,12.87
2022-12-04T10:41:43.279Z,15.05
2022-12-04T10:44:13.763Z,13.83
2022-12-04T10:46:45.731Z,13.93
2022-12-04T10:49:25.237Z,14.77
2022-12-04T10:51:52.047Z,14.50
2022-12-04T10:54:23.668Z,13.27
2022-12-04T10:57:00.549Z,13.50
2022-12-04T10:59:27.333Z,12.37
2022-12-04T11:02:06.105Z,12.53
2022-12-04T11:04:34.038Z,14.07
2022-12-04T11:07:05.227Z,13.70
2022-12-04T11:09:32.446Z,13.45
2022-12-04T11:12:18.820Z,14.13
2022-12-04T11:14:47.366Z,14.07
2022-12-04T11:17:18.041Z,13.93
2022-12-04T11:19:45.173Z,13.77
2022-12-04T11:22:11.821Z,14.00
2022-12-04T11:24:40.045Z,14.90
2022-12-04T11:27:07.537Z,14.73
2022-12-04T11:29:41.099Z,13.77
2022-12-04T11:32:08.294Z,14.60
2022-12-04T11:34:36.771Z,13.57
2022-12-04T11:37:03.685Z,13.27
2022-12-04T11:39:30.104Z,14.63
2022-12-04T11:42:04.018Z,13.83
2022-12-04T11:44:32.390Z,13.87
2022-12-04T11:47:01.901Z,14.07
2022-12-04T11:49:29.368Z,14.77
2022-12-04T11:52:05.171Z,14.33
2022-12-04T11:54:39.671Z,14.00
2022-12-04T11:57:16.238Z,14.20
2022-12-04T11:59:42.802Z,13.93
2022-12-04T12:02:27.653Z,20.10
2022-12-04T12:05:04.019Z,23.53
2022-12-04T12:07:36.365Z,14.03
2022-12-04T12:10:24.816Z,13.50
2022-12-04T12:13:23.429Z,12.70
2022-12-04T12:15:55.750Z,13.67
2022-12-04T12:18:27.979Z,14.07
2022-12-04T12:21:08.138Z,14.97
2022-12-04T12:23:37.429Z,14.30
2022-12-04T12:26:08.749Z,13.70
2022-12-04T12:31:07.767Z,13.03
2022-12-04T12:33:36.729Z,12.77
2022-12-04T12:36:03.316Z,12.43
2022-12-04T12:38:34.730Z,12.83
2022-12-04T12:41:06.652Z,13.40
2022-12-04T12:43:35.285Z,12.07
2022-12-04T12:46:08.534Z,12.80
2022-12-04T12:48:55.003Z,13.07
2022-12-04T12:51:30.493Z,14.43
2022-12-04T12:54:01.796Z,13.40
2022-12-04T12:56:36.255Z,12.63
2022-12-04T12:59:04.329Z,13.47
2022-12-04T13:01:39.903Z,13.30
2022-12-04T13:04:11.097Z,12.80
2022-12-04T13:06:42.002Z,13.93
2022-12-04T13:09:14.365Z,12.77
2022-12-04T13:11:41.596Z,14.90
2022-12-04T13:14:12.346Z,13.53
2022-12-04T13:16:42.460Z,12.50
2022-12-04T13:19:24.269Z,13.60
2022-12-04T13:21:59.724Z,13.20
2022-12-04T13:24:44.798Z,13.10
2022-12-04T13:27:21.789Z,13.07
2022-12-04T13:29:57.434Z,13.37
2022-12-04T13:32:30.102Z,12.03
2022-12-04T13:35:04.124Z,12.67
2022-12-04T13:37:47.972Z,13.27
2022-12-04T13:40:29.043Z,13.30
2022-12-04T13:43:14.109Z,14.93
2022-12-04T13:45:40.981Z,12.83
2022-12-04T13:48:09.598Z,12.03
2022-12-04T13:50:37.112Z,12.77
2022-12-04T13:53:04.214Z,12.17
2022-12-04T13:55:30.804Z,11.63
2022-12-04T13:57:58.643Z,12.37
2022-12-04T14:00:28.138Z,11.77
2022-12-04T14:02:55.754Z,11.97
2022-12-04T14:05:33.642Z,12.20
2022-12-04T14:08:07.602Z,12.00
2022-12-04T14:10:36.702Z,12.30
2022-12-04T14:13:05.503Z,12.30
2022-12-04T14:15:33.449Z,12.40
2022-12-04T14:18:05.450Z,13.07
2022-12-04T14:20:33.301Z,13.57
2022-12-04T14:23:20.087Z,11.90
2022-12-04T14:25:46.521Z,13.67
2022-12-04T14:28:23.063Z,13.67
2022-12-04T14:31:08.213Z,13.53
2022-12-04T14:33:38.221Z,14.40
2022-12-04T14:36:28.092Z,15.03
2022-12-04T14:39:13.529Z,15.10
2022-12-04T14:41:40.637Z,15.23
2022-12-04T14:44:07.593Z,15.53
2022-12-04T14:46:38.569Z,14.47
2022-12-04T14:49:14.536Z,15.15
2022-12-04T14:51:49.574Z,14.47
2022-12-04T14:54:36.240Z,14.47
2022-12-04T14:57:12.953Z,13.80
2022-12-04T14:59:47.862Z,13.60
2022-12-04T15:02:17.630Z,12.83
2022-12-04T15:04:46.353Z,13.30
2022-12-04T15:07:28.393Z,14.70
2022-12-04T15:10:14.923Z,14.57
2022-12-04T15:12:45.089Z,13.90
2022-12-04T15:15:14.017Z,14.63
2022-12-04T15:17:40.748Z,13.77
2022-12-04T15:20:11.193Z,14.17
2022-12-04T15:22:37.738Z,14.00
2022-12-04T15:25:06.248Z,13.27
2022-12-04T15:27:33.195Z,13.53
2022-12-04T15:30:01.012Z,14.30
2022-12-04T15:32:28.821Z,14.17
2022-12-04T15:34:59.389Z,13.50
2022-12-04T15:37:27.055Z,14.27
2022-12-04T15:39:53.955Z,14.13
2022-12-04T15:42:23.407Z,14.37
2022-12-04T15:44:54.957Z,14.00
2022-12-04T15:47:23.219Z,14.37
2022-12-04T15:49:49.682Z,15.40
2022-12-04T15:52:17.757Z,13.80
2022-12-04T15:54:48.344Z,14.80
2022-12-04T15:57:23.963Z,14.57
2022-12-04T15:59:51.672Z,15.00
2022-12-04T16:02:41.296Z,16.23
2022-12-04T16:05:24.002Z,14.43
2022-12-04T16:07:51.522Z,15.53
2022-12-04T16:10:21.361Z,15.43
2022-12-04T16:12:55.651Z,14.83
2022-12-04T16:15:22.622Z,15.87
2022-12-04T16:17:49.222Z,16.70
2022-12-04T16:20:15.988Z,16.07
2022-12-04T16:22:42.573Z,16.77
2022-12-04T16:25:12.615Z,16.93
2022-12-04T16:27:39.144Z,16.87
2022-12-04T16:30:05.934Z,17.20
2022-12-04T16:32:33.347Z,16.80
2022-12-04T16:35:00.227Z,15.93
2022-12-04T16:37:27.117Z,18.13
2022-12-04T16:39:53.734Z,16.60
2022-12-04T16:42:29.481Z,16.57
2022-12-04T16:44:56.544Z,15.57
2022-12-04T16:47:23.186Z,16.17
2022-12-04T16:49:50.823Z,14.90
2022-12-04T16:52:17.889Z,15.50
2022-12-04T16:54:44.599Z,15.97
2022-12-04T16:57:11.330Z,15.93
2022-12-04T16:59:38.183Z,16.30
2022-12-04T17:02:12.380Z,18.17
2022-12-04T17:04:38.965Z,19.13
2022-12-04T17:07:05.631Z,19.10
2022-12-04T17:09:32.060Z,19.67
2022-12-04T17:11:58.506Z,19.93
2022-12-04T17:14:24.863Z,19.57
2022-12-04T17:16:52.030Z,19.47
2022-12-04T17:19:19.045Z,20.00
2022-12-04T17:21:46.165Z,18.70
2022-12-04T17:24:12.556Z,19.10
2022-12-04T17:26:39.068Z,19.60
2022-12-04T17:29:05.441Z,20.93
2022-12-04T17:31:32.157Z,19.30
2022-12-04T17:33:58.764Z,18.73
2022-12-04T17:36:26.206Z,18.87
2022-12-04T17:38:56.564Z,20.57
2022-12-04T17:41:23.156Z,20.10
2022-12-04T17:43:49.803Z,19.27
2022-12-04T17:46:18.888Z,20.63
2022-12-04T17:48:45.563Z,19.80
2022-12-04T17:51:14.897Z,19.57
2022-12-04T17:53:41.343Z,19.80
2022-12-04T17:56:09.756Z,21.03
2022-12-04T17:58:36.257Z,20.27
2022-12-04T18:01:07.838Z,19.53
2022-12-04T18:03:34.760Z,19.30
2022-12-04T18:06:01.643Z,20.10
2022-12-04T18:08:29.554Z,20.13
2022-12-04T18:10:56.773Z,18.50
2022-12-04T18:13:23.162Z,19.23
2022-12-04T18:15:49.590Z,17.30
2022-12-04T18:18:16.059Z,15.53
2022-12-04T18:20:42.505Z,15.03
2022-12-04T18:23:09.045Z,14.47
2022-12-04T18:25:35.476Z,14.60
2022-12-04T18:28:01.851Z,14.43
2022-12-04T18:30:28.297Z,15.07
2022-12-04T18:32:55.296Z,14.93
2022-12-04T18:35:21.690Z,14.47
2022-12-04T18:37:48.562Z,14.30
2022-12-04T18:40:15.037Z,13.70
2022-12-04T18:42:41.701Z,14.60
2022-12-04T18:45:08.510Z,13.90
2022-12-04T18:47:36.512Z,13.97
2022-12-04T18:50:03.105Z,12.77
2022-12-04T18:52:29.780Z,12.57
2022-12-04T18:54:56.180Z,12.73
2022-12-04T18:57:22.592Z,13.00
2022-12-04T18:59:49.025Z,14.37
2022-12-04T19:02:15.473Z,13.37
2022-12-04T19:04:42.097Z,13.43
2022-12-04T19:07:08.778Z,14.00
2022-12-04T19:10:09.487Z,13.47
2022-12-04T19:12:21.738Z,14.60
2022-12-04T19:14:48.180Z,14.97
2022-12-04T19:17:15.905Z,16.20
2022-12-04T19:19:42.313Z,16.23
2022-12-04T19:22:08.755Z,15.47
2022-12-04T19:24:35.151Z,15.20
2022-12-04T19:27:09.859Z,17.87
2022-12-04T19:29:36.844Z,17.43
2022-12-04T19:32:03.349Z,18.90
2022-12-04T19:34:29.811Z,17.53
2022-12-04T19:36:56.297Z,17.57
2022-12-04T19:39:22.771Z,16.73
2022-12-04T19:41:49.229Z,14.97
2022-12-04T19:44:47.453Z,15.80
2022-12-04T19:47:02.404Z,15.37
2022-12-04T19:49:29.396Z,13.97
2022-12-04T19:51:55.817Z,15.90
2022-12-04T19:54:23.921Z,15.47
2022-12-04T19:56:51.210Z,16.07
2022-12-04T19:59:18.174Z,16.93
2022-12-04T20:01:44.675Z,17.00
2022-12-04T20:04:11.262Z,16.63
2022-12-04T20:06:39.669Z,16.87
2022-12-04T20:09:08.361Z,17.57
2022-12-04T20:11:35.623Z,17.20
2022-12-04T20:14:03.830Z,19.77
2022-12-04T20:16:31.498Z,18.10
2022-12-04T20:18:58.150Z,17.87
2022-12-04T20:21:28.377Z,17.10
2022-12-04T20:23:54.860Z,16.63
2022-12-04T20:26:22.210Z,16.10
2022-12-04T20:28:48.653Z,16.23
2022-12-04T20:31:19.616Z,16.47
2022-12-04T20:33:47.677Z,16.67
2022-12-04T20:36:15.664Z,15.57
2022-12-04T20:38:42.613Z,17.27
2022-12-04T20:41:10.333Z,16.47
2022-12-04T20:43:36.964Z,15.13
2022-12-04T20:46:13.325Z,16.47
2022-12-04T20:48:39.788Z,16.50
2022-12-04T20:51:06.329Z,18.43
2022-12-04T20:53:33.020Z,20.37
2022-12-04T20:55:59.538Z,18.53
2022-12-04T20:58:27.329Z,19.67
2022-12-04T21:00:53.965Z,19.33
2022-12-04T21:03:20.357Z,19.50
2022-12-04T21:05:49.951Z,18.60
2022-12-04T21:08:36.690Z,20.43
2022-12-04T21:11:03.209Z,20.90
2022-12-04T21:13:48.443Z,21.67
2022-12-04T21:16:15.622Z,20.60
2022-12-04T21:18:42.125Z,19.93
2022-12-04T21:21:08.665Z,19.90
2022-12-04T21:23:35.959Z,20.07
2022-12-04T21:26:02.373Z,20.60
2022-12-04T21:28:28.944Z,19.70
2022-12-04T21:31:00.373Z,20.07
2022-12-04T21:33:29.053Z,19.13
2022-12-04T21:35:55.484Z,19.57
2022-12-04T21:38:21.938Z,21.37
2022-12-04T21:40:48.977Z,21.07
2022-12-04T21:43:15.682Z,19.97
2022-12-04T21:45:42.183Z,20.33
2022-12-04T21:48:08.593Z,19.50
2022-12-04T21:50:35.023Z,17.33
2022-12-04T21:53:01.455Z,18.47
2022-12-04T21:55:27.995Z,18.90
2022-12-04T21:57:54.440Z,18.63
2022-12-04T22:00:20.959Z,16.97
2022-12-04T22:02:47.397Z,17.37
2022-12-04T22:05:13.866Z,15.37
2022-12-04T22:07:40.643Z,15.97
2022-12-04T22:10:10.850Z,16.80
2022-12-04T22:12:52.866Z,17.20
2022-12-04T22:15:19.409Z,16.97
2022-12-04T22:17:45.880Z,18.17
2022-12-04T22:20:12.275Z,16.60
2022-12-04T22:22:38.661Z,17.47
2022-12-04T22:25:05.260Z,16.73
2022-12-04T22:27:31.672Z,17.20
2022-12-04T22:29:58.418Z,16.50
2022-12-04T22:32:24.864Z,17.70
2022-12-04T22:34:51.339Z,15.80
2022-12-04T22:37:17.770Z,15.70
2022-12-04T22:39:44.229Z,17.17
2022-12-04T22:42:10.790Z,16.30
2022-12-04T22:44:37.269Z,17.03
2022-12-04T22:47:03.875Z,17.30
2022-12-04T22:49:30.305Z,16.40
2022-12-04T22:51:56.721Z,17.87
2022-12-04T22:54:23.153Z,18.17
2022-12-04T22:56:49.817Z,18.40
2022-12-04T22:59:16.293Z,18.37
2022-12-04T23:01:42.974Z,17.83
2022-12-04T23:04:09.465Z,17.17
2022-12-04T23:06:36.043Z,17.03
2022-12-04T23:09:04.233Z,18.97
2022-12-04T23:11:30.802Z,18.13
2022-12-04T23:14:00.085Z,18.03
2022-12-04T23:16:27.409Z,17.70
2022-12-04T23:18:53.889Z,17.67
2022-12-04T23:21:21.101Z,17.57
2022-12-04T23:23:48.237Z,17.53
2022-12-04T23:26:16.569Z,17.23
2022-12-04T23:28:43.095Z,17.20
2022-12-04T23:31:11.047Z,17.10
2022-12-04T23:33:38.240Z,17.50
2022-12-04T23:36:05.844Z,17.30
2022-12-04T23:38:32.464Z,18.00
2022-12-04T23:41:00.713Z,17.30
2022-12-04T23:43:27.195Z,17.80
2022-12-04T23:45:53.616Z,17.03
2022-12-04T23:48:20.024Z,17.50
2022-12-04T23:50:46.458Z,18.23
2022-12-04T23:53:13.083Z,18.00
2022-12-04T23:55:39.622Z,17.17
2022-12-04T23:58:06.299Z,18.90
